createdAt,value
2017-08-27T00:01:22.769Z,66.80
2017-08-27T00:03:50.298Z,66.10
2017-08-27T00:06:17.908Z,65.70
2017-08-27T00:08:45.438Z,65.40
2017-08-27T00:11:12.967Z,65.00
2017-08-27T00:13:40.517Z,64.90
2017-08-27T00:16:08.041Z,65.00
2017-08-27T00:18:35.570Z,65.70
2017-08-27T00:21:03.094Z,65.80
2017-08-27T00:23:30.622Z,65.30
2017-08-27T00:25:58.948Z,65.90
2017-08-27T00:28:27.239Z,66.20
2017-08-27T00:30:54.766Z,66.20
2017-08-27T00:33:22.382Z,66.50
2017-08-27T00:35:49.917Z,67.20
2017-08-27T00:38:17.490Z,66.90
2017-08-27T00:40:45.028Z,66.30
2017-08-27T00:43:12.562Z,65.80
2017-08-27T00:45:40.086Z,65.60
2017-08-27T00:48:08.662Z,65.50
2017-08-27T00:50:36.214Z,65.50
2017-08-27T00:53:03.779Z,65.30
2017-08-27T00:55:31.314Z,65.70
2017-08-27T00:57:58.845Z,65.60
2017-08-27T01:00:26.373Z,65.60
2017-08-27T01:02:53.918Z,65.20
2017-08-27T01:05:21.466Z,65.30
2017-08-27T01:07:48.994Z,65.10
2017-08-27T01:10:16.529Z,65.10
2017-08-27T01:12:44.058Z,65.50
2017-08-27T01:15:11.610Z,65.50
2017-08-27T01:17:39.150Z,65.40
2017-08-27T01:20:06.690Z,65.30
2017-08-27T01:22:34.242Z,65.00
2017-08-27T01:25:01.770Z,65.00
2017-08-27T01:27:29.298Z,65.20
2017-08-27T01:29:56.854Z,65.50
2017-08-27T01:32:24.378Z,65.50
2017-08-27T01:34:51.922Z,65.50
2017-08-27T01:37:19.486Z,65.90
2017-08-27T01:39:47.014Z,65.90
2017-08-27T01:42:14.541Z,66.10
2017-08-27T01:44:42.201Z,66.30
2017-08-27T01:47:09.731Z,66.90
2017-08-27T01:49:37.261Z,67.10
2017-08-27T01:52:04.810Z,67.10
2017-08-27T01:54:32.334Z,66.90
2017-08-27T01:56:59.865Z,66.70
2017-08-27T01:59:27.426Z,66.70
2017-08-27T02:01:54.957Z,66.50
2017-08-27T02:04:22.481Z,66.70
2017-08-27T02:06:50.006Z,66.90
2017-08-27T02:09:17.543Z,66.70
2017-08-27T02:11:45.096Z,66.80
2017-08-27T02:14:13.389Z,66.90
2017-08-27T02:16:40.922Z,66.90
2017-08-27T02:19:08.449Z,67.00
2017-08-27T02:21:35.978Z,66.60
2017-08-27T02:24:03.529Z,66.90
2017-08-27T02:26:31.056Z,67.20
2017-08-27T02:28:58.578Z,67.30
2017-08-27T02:31:26.109Z,67.00
2017-08-27T02:33:53.634Z,67.10
2017-08-27T02:36:21.970Z,68.10
2017-08-27T02:38:49.511Z,67.20
2017-08-27T02:41:17.037Z,67.10
2017-08-27T02:43:44.564Z,67.50
2017-08-27T02:46:12.090Z,67.60
2017-08-27T02:48:39.647Z,67.80
2017-08-27T02:51:07.171Z,68.20
2017-08-27T02:53:35.466Z,68.10
2017-08-27T02:56:03.002Z,68.10
2017-08-27T02:58:30.534Z,67.90
2017-08-27T03:00:58.089Z,67.70
2017-08-27T03:03:25.618Z,67.40
2017-08-27T03:05:53.173Z,67.20
2017-08-27T03:08:20.698Z,67.00
2017-08-27T03:10:48.226Z,66.90
2017-08-27T03:13:15.785Z,67.20
2017-08-27T03:15:43.329Z,67.10
2017-08-27T03:18:10.854Z,67.30
2017-08-27T03:20:38.384Z,67.40
2017-08-27T03:23:05.989Z,68.40
2017-08-27T03:25:33.653Z,67.80
2017-08-27T03:28:01.182Z,67.70
2017-08-27T03:30:28.714Z,67.60
2017-08-27T03:32:56.242Z,67.60
2017-08-27T03:35:23.770Z,67.40
2017-08-27T03:37:51.332Z,67.50
2017-08-27T03:40:18.865Z,67.90
2017-08-27T03:42:46.431Z,68.70
2017-08-27T03:45:13.953Z,68.80
2017-08-27T03:47:41.482Z,68.40
2017-08-27T03:50:09.033Z,68.00
2017-08-27T03:52:36.558Z,67.70
2017-08-27T03:55:04.094Z,67.80
2017-08-27T03:57:31.625Z,67.70
2017-08-27T03:59:59.157Z,68.20
2017-08-27T04:02:26.720Z,67.90
2017-08-27T04:04:54.242Z,67.90
2017-08-27T04:07:21.766Z,68.20
2017-08-27T04:09:49.285Z,67.90
2017-08-27T04:12:16.817Z,67.80
2017-08-27T04:14:44.419Z,67.80
2017-08-27T04:17:11.947Z,67.80
2017-08-27T04:19:39.478Z,67.60
2017-08-27T04:22:07.018Z,67.60
2017-08-27T04:24:34.546Z,67.50
2017-08-27T04:27:02.861Z,67.70
2017-08-27T04:29:30.385Z,67.70
2017-08-27T04:31:57.914Z,67.80
2017-08-27T04:34:25.446Z,67.80
2017-08-27T04:36:52.975Z,67.80
2017-08-27T04:39:20.525Z,67.50
2017-08-27T04:41:48.054Z,67.30
2017-08-27T04:44:15.578Z,67.20
2017-08-27T04:46:43.102Z,66.70
2017-08-27T04:49:10.626Z,66.50
2017-08-27T04:51:38.183Z,67.10
2017-08-27T04:54:05.714Z,67.20
2017-08-27T04:56:33.237Z,66.80
2017-08-27T04:59:00.758Z,67.00
2017-08-27T05:01:28.346Z,66.70
2017-08-27T05:03:55.897Z,66.60
2017-08-27T05:06:23.417Z,66.60
2017-08-27T05:08:51.705Z,66.90
2017-08-27T05:11:19.998Z,67.60
2017-08-27T05:13:47.529Z,67.40
2017-08-27T05:16:15.086Z,67.60
2017-08-27T05:18:42.601Z,67.60
2017-08-27T05:21:10.125Z,67.30
2017-08-27T05:23:37.645Z,67.00
2017-08-27T05:26:05.173Z,66.90
2017-08-27T05:28:32.926Z,67.30
2017-08-27T05:31:00.498Z,66.80
2017-08-27T05:33:28.022Z,66.50
2017-08-27T05:35:55.554Z,67.30
2017-08-27T05:38:23.110Z,69.10
2017-08-27T05:40:50.666Z,70.00
2017-08-27T05:43:18.205Z,71.40
2017-08-27T05:45:45.740Z,71.50
2017-08-27T05:48:13.270Z,71.90
2017-08-27T05:50:40.806Z,71.60
2017-08-27T05:53:08.357Z,70.70
2017-08-27T05:55:35.974Z,71.10
2017-08-27T05:58:03.504Z,71.40
2017-08-27T06:00:31.030Z,71.10
2017-08-27T06:02:58.559Z,70.80
2017-08-27T06:05:26.132Z,71.20
2017-08-27T06:07:53.670Z,70.80
2017-08-27T06:10:21.198Z,70.70
2017-08-27T06:12:48.760Z,70.80
2017-08-27T06:15:16.297Z,71.40
2017-08-27T06:17:43.875Z,72.70
2017-08-27T06:20:11.437Z,72.70
2017-08-27T06:22:39.012Z,72.20
2017-08-27T06:25:06.580Z,71.10
2017-08-27T06:27:34.128Z,71.70
2017-08-27T06:30:01.683Z,72.40
2017-08-27T06:32:29.201Z,71.90
2017-08-27T06:34:56.742Z,71.60
2017-08-27T06:37:24.275Z,71.00
2017-08-27T06:39:51.801Z,71.40
2017-08-27T06:42:19.350Z,70.70
2017-08-27T06:44:46.877Z,71.50
2017-08-27T06:47:14.412Z,72.00
2017-08-27T06:49:41.942Z,71.20
2017-08-27T06:52:09.465Z,70.70
2017-08-27T06:54:37.054Z,70.00
2017-08-27T06:57:04.584Z,69.40
2017-08-27T06:59:32.203Z,70.30
2017-08-27T07:01:59.730Z,70.10
2017-08-27T07:04:27.263Z,69.10
2017-08-27T07:06:54.826Z,68.50
2017-08-27T07:09:22.354Z,67.80
2017-08-27T07:11:49.890Z,67.20
2017-08-27T07:14:17.422Z,67.40
2017-08-27T07:16:44.946Z,66.80
2017-08-27T07:19:12.512Z,67.00
2017-08-27T07:21:40.064Z,66.50
2017-08-27T07:24:07.640Z,65.50
2017-08-27T07:26:35.208Z,65.60
2017-08-27T07:29:02.807Z,64.00
2017-08-27T07:31:30.375Z,63.80
2017-08-27T07:33:57.932Z,63.20
2017-08-27T07:36:25.512Z,63.10
2017-08-27T07:38:53.075Z,62.40
2017-08-27T07:41:20.668Z,61.90
2017-08-27T07:43:48.651Z,61.40
2017-08-27T07:46:16.210Z,61.40
2017-08-27T07:48:43.783Z,61.40
2017-08-27T07:51:11.353Z,61.60
2017-08-27T07:53:38.949Z,60.60
2017-08-27T07:56:06.584Z,60.10
2017-08-27T07:58:34.117Z,59.00
2017-08-27T08:01:01.698Z,59.30
2017-08-27T08:03:29.250Z,59.60
2017-08-27T08:05:56.819Z,58.80
2017-08-27T08:08:24.391Z,56.90
2017-08-27T08:10:51.971Z,56.10
2017-08-27T08:13:19.543Z,55.90
2017-08-27T08:15:47.130Z,55.90
2017-08-27T08:18:14.654Z,54.10
2017-08-27T08:20:42.229Z,54.40
2017-08-27T08:23:09.781Z,54.30
2017-08-27T08:25:37.331Z,54.30
2017-08-27T08:28:04.858Z,54.40
2017-08-27T08:30:32.402Z,54.70
2017-08-27T08:32:59.958Z,54.70
2017-08-27T08:35:27.481Z,54.80
2017-08-27T08:37:55.006Z,54.00
2017-08-27T08:40:22.542Z,53.70
2017-08-27T08:42:50.077Z,54.20
2017-08-27T08:45:17.632Z,54.70
2017-08-27T08:47:45.159Z,53.70
2017-08-27T08:50:12.690Z,53.00
2017-08-27T08:52:40.226Z,53.70
2017-08-27T08:55:07.750Z,52.50
2017-08-27T08:57:35.305Z,52.60
2017-08-27T09:00:02.846Z,53.10
2017-08-27T09:02:30.369Z,52.70
2017-08-27T09:04:57.895Z,53.00
2017-08-27T09:07:25.439Z,53.30
2017-08-27T09:09:52.989Z,52.10
2017-08-27T09:12:20.518Z,52.50
2017-08-27T09:14:48.042Z,52.10
2017-08-27T09:17:15.574Z,52.20
2017-08-27T09:19:43.106Z,51.90
2017-08-27T09:22:10.670Z,50.90
2017-08-27T09:24:38.194Z,51.30
2017-08-27T09:27:05.842Z,51.60
2017-08-27T09:29:33.379Z,50.90
2017-08-27T09:32:00.902Z,51.60
2017-08-27T09:34:28.457Z,52.10
2017-08-27T09:36:55.990Z,48.80
2017-08-27T09:39:23.523Z,48.60
2017-08-27T09:41:51.054Z,48.40
2017-08-27T09:44:18.583Z,46.90
2017-08-27T09:46:46.145Z,45.10
2017-08-27T09:49:13.674Z,45.10
2017-08-27T09:51:41.208Z,46.10
2017-08-27T09:54:08.739Z,45.40
2017-08-27T09:56:37.048Z,44.80
2017-08-27T09:59:04.610Z,44.80
2017-08-27T10:01:32.146Z,44.80
2017-08-27T10:03:59.674Z,43.40
2017-08-27T10:06:27.202Z,43.50
2017-08-27T10:08:54.730Z,42.90
2017-08-27T10:11:22.290Z,43.50
2017-08-27T10:13:49.813Z,43.70
2017-08-27T10:16:17.346Z,42.40
2017-08-27T10:18:44.878Z,41.50
2017-08-27T10:21:12.406Z,42.20
2017-08-27T10:23:39.978Z,41.80
2017-08-27T10:26:07.515Z,41.90
2017-08-27T10:28:35.809Z,40.10
2017-08-27T10:31:03.333Z,40.00
2017-08-27T10:33:30.850Z,39.50
2017-08-27T10:35:58.402Z,39.20
2017-08-27T10:38:25.930Z,38.70
2017-08-27T10:40:53.455Z,39.10
2017-08-27T10:43:20.990Z,39.20
2017-08-27T10:45:48.518Z,37.90
2017-08-27T10:48:16.065Z,38.40
2017-08-27T10:50:43.584Z,37.30
2017-08-27T10:53:11.108Z,36.60
2017-08-27T10:55:38.630Z,36.10
2017-08-27T10:58:06.206Z,36.70
2017-08-27T11:00:33.791Z,37.90
2017-08-27T11:03:01.349Z,38.10
2017-08-27T11:05:28.878Z,37.80
2017-08-27T11:07:56.397Z,37.70
2017-08-27T11:10:23.921Z,37.50
2017-08-27T11:12:51.465Z,37.20
2017-08-27T11:15:18.981Z,35.10
2017-08-27T11:17:46.507Z,35.20
2017-08-27T11:20:14.034Z,34.90
2017-08-27T11:22:41.554Z,33.40
2017-08-27T11:25:09.174Z,31.70
2017-08-27T11:27:36.690Z,33.20
2017-08-27T11:30:04.990Z,30.00
2017-08-27T11:32:32.513Z,30.00
2017-08-27T11:35:00.047Z,30.50
2017-08-27T11:37:27.681Z,31.20
2017-08-27T11:39:55.255Z,30.70
2017-08-27T11:42:22.803Z,29.50
2017-08-27T11:44:50.330Z,29.80
2017-08-27T11:47:17.849Z,29.80
2017-08-27T11:49:45.394Z,29.10
2017-08-27T11:52:12.914Z,29.00
2017-08-27T11:54:40.430Z,28.30
2017-08-27T11:57:07.951Z,27.80
2017-08-27T11:59:35.466Z,27.00
2017-08-27T12:02:03.029Z,27.40
2017-08-27T12:04:30.566Z,27.30
2017-08-27T12:06:58.085Z,25.80
2017-08-27T12:09:25.601Z,26.70
2017-08-27T12:11:53.118Z,27.30
2017-08-27T12:14:20.669Z,26.30
2017-08-27T12:16:48.193Z,25.60
2017-08-27T12:19:15.714Z,25.70
2017-08-27T12:21:43.238Z,25.50
2017-08-27T12:24:10.758Z,25.20
2017-08-27T12:26:38.301Z,24.00
2017-08-27T12:29:05.830Z,22.40
2017-08-27T12:31:33.354Z,22.80
2017-08-27T12:34:00.882Z,23.10
2017-08-27T12:36:28.410Z,23.50
2017-08-27T12:38:55.983Z,23.30
2017-08-27T12:41:23.502Z,24.00
2017-08-27T12:43:51.033Z,24.00
2017-08-27T12:46:18.564Z,24.90
2017-08-27T12:48:46.086Z,25.20
2017-08-27T12:51:13.633Z,26.00
2017-08-27T12:53:41.161Z,26.20
2017-08-27T12:56:08.691Z,26.70
2017-08-27T12:58:36.222Z,26.10
2017-08-27T13:01:03.745Z,26.10
2017-08-27T13:03:31.405Z,25.00
2017-08-27T13:05:58.933Z,22.90
2017-08-27T13:08:26.467Z,21.30
2017-08-27T13:10:54.003Z,21.10
2017-08-27T13:13:21.522Z,20.70
2017-08-27T13:15:49.083Z,21.00
2017-08-27T13:18:16.603Z,20.80
2017-08-27T13:20:44.122Z,21.10
2017-08-27T13:23:11.642Z,19.90
2017-08-27T13:25:39.167Z,20.70
2017-08-27T13:28:06.714Z,21.60
2017-08-27T13:30:34.233Z,23.00
2017-08-27T13:33:02.532Z,25.20
2017-08-27T13:35:30.054Z,25.20
2017-08-27T13:37:57.574Z,26.00
2017-08-27T13:40:25.122Z,26.00
2017-08-27T13:42:52.642Z,24.90
2017-08-27T13:45:21.080Z,23.80
2017-08-27T13:47:48.603Z,23.00
2017-08-27T13:50:16.143Z,23.10
2017-08-27T13:52:43.693Z,23.10
2017-08-27T13:55:11.222Z,23.10
2017-08-27T13:57:38.758Z,22.50
2017-08-27T14:00:06.273Z,21.60
2017-08-27T14:02:33.799Z,21.10
2017-08-27T14:05:01.353Z,20.50
2017-08-27T14:07:28.874Z,19.70
2017-08-27T14:09:56.399Z,19.40
2017-08-27T14:12:24.697Z,19.10
2017-08-27T14:14:52.986Z,19.10
2017-08-27T14:17:20.533Z,19.10
2017-08-27T14:19:48.055Z,19.40
2017-08-27T14:22:15.585Z,19.50
2017-08-27T14:24:43.109Z,19.90
2017-08-27T14:27:10.642Z,18.90
2017-08-27T14:29:38.193Z,19.10
2017-08-27T14:32:05.717Z,18.70
2017-08-27T14:34:33.369Z,18.30
2017-08-27T14:37:00.890Z,18.50
2017-08-27T14:39:28.707Z,19.20
2017-08-27T14:41:56.262Z,19.60
2017-08-27T14:44:23.786Z,19.50
2017-08-27T14:46:56.154Z,19.00
2017-08-27T14:49:23.864Z,18.70
2017-08-27T14:51:51.413Z,18.20
2017-08-27T14:54:18.937Z,17.80
2017-08-27T14:56:46.454Z,17.60
2017-08-27T14:59:14.001Z,18.00
2017-08-27T15:01:41.546Z,17.40
2017-08-27T15:04:09.070Z,17.20
2017-08-27T15:06:36.597Z,17.20
2017-08-27T15:09:04.113Z,17.40
2017-08-27T15:11:31.687Z,17.30
2017-08-27T15:13:59.233Z,17.50
2017-08-27T15:16:26.789Z,18.20
2017-08-27T15:18:54.313Z,18.30
2017-08-27T15:21:21.839Z,18.70
2017-08-27T15:23:49.401Z,18.80
2017-08-27T15:26:16.922Z,19.10
2017-08-27T15:28:44.446Z,19.70
2017-08-27T15:31:11.961Z,20.50
2017-08-27T15:33:39.487Z,21.20
2017-08-27T15:36:07.045Z,21.10
2017-08-27T15:38:34.570Z,21.20
2017-08-27T15:41:02.101Z,20.60
2017-08-27T15:43:29.617Z,20.90
2017-08-27T15:45:57.136Z,20.60
2017-08-27T15:48:24.690Z,19.90
2017-08-27T15:50:52.226Z,20.30
2017-08-27T15:53:19.754Z,19.80
2017-08-27T15:55:47.286Z,19.80
2017-08-27T15:58:14.808Z,19.90
2017-08-27T16:00:42.358Z,20.00
2017-08-27T16:03:09.882Z,20.30
2017-08-27T16:05:37.402Z,20.20
2017-08-27T16:08:04.930Z,20.40
2017-08-27T16:10:32.445Z,20.60
2017-08-27T16:12:59.975Z,21.00
2017-08-27T16:15:27.502Z,21.90
2017-08-27T16:17:55.079Z,22.60
2017-08-27T16:20:22.586Z,23.50
2017-08-27T16:22:50.120Z,24.40
2017-08-27T16:25:17.650Z,25.30
2017-08-27T16:27:45.181Z,26.20
2017-08-27T16:30:12.735Z,26.70
2017-08-27T16:32:40.259Z,27.40
2017-08-27T16:35:07.780Z,28.10
2017-08-27T16:37:35.297Z,28.80
2017-08-27T16:40:02.819Z,29.50
2017-08-27T16:42:30.362Z,29.80
2017-08-27T16:44:57.883Z,29.80
2017-08-27T16:47:37.369Z,30.00
2017-08-27T16:50:04.891Z,30.50
2017-08-27T16:52:32.414Z,30.80
2017-08-27T16:54:59.943Z,30.70
2017-08-27T16:57:27.461Z,31.20
2017-08-27T16:59:55.002Z,31.40
2017-08-27T17:02:22.586Z,31.70
2017-08-27T17:04:50.193Z,31.90
2017-08-27T17:07:18.072Z,32.10
2017-08-27T17:09:45.616Z,32.50
2017-08-27T17:12:13.199Z,32.70
2017-08-27T17:14:40.757Z,32.80
2017-08-27T17:17:08.287Z,32.70
2017-08-27T17:19:35.809Z,33.20
2017-08-27T17:22:03.339Z,33.10
2017-08-27T17:24:30.877Z,33.20
2017-08-27T17:26:58.429Z,33.40
2017-08-27T17:29:25.969Z,33.60
2017-08-27T17:31:53.494Z,34.30
2017-08-27T17:34:21.015Z,33.60
2017-08-27T17:36:48.570Z,33.70
2017-08-27T17:39:16.098Z,33.90
2017-08-27T17:41:43.634Z,33.80
2017-08-27T17:44:11.162Z,33.90
2017-08-27T17:46:38.690Z,34.10
2017-08-27T17:49:06.243Z,34.00
2017-08-27T17:51:33.769Z,34.50
2017-08-27T17:54:01.297Z,34.40
2017-08-27T17:56:28.824Z,34.60
2017-08-27T17:58:56.346Z,34.90
2017-08-27T18:01:23.902Z,35.60
2017-08-27T18:03:51.431Z,35.50
2017-08-27T18:06:18.975Z,35.80
2017-08-27T18:08:46.498Z,36.10
2017-08-27T18:11:14.024Z,36.30
2017-08-27T18:13:41.586Z,36.40
2017-08-27T18:16:09.118Z,36.40
2017-08-27T18:18:37.009Z,36.30
2017-08-27T18:21:04.568Z,36.80
2017-08-27T18:23:32.111Z,36.70
2017-08-27T18:25:59.666Z,37.10
2017-08-27T18:28:27.193Z,37.10
2017-08-27T18:30:54.743Z,37.20
2017-08-27T18:33:22.273Z,37.30
2017-08-27T18:35:49.826Z,37.40
2017-08-27T18:38:17.378Z,37.70
2017-08-27T18:40:44.902Z,37.60
2017-08-27T18:43:12.430Z,37.80
2017-08-27T18:45:39.954Z,38.10
2017-08-27T18:48:07.482Z,38.00
2017-08-27T18:50:35.033Z,38.10
2017-08-27T18:53:02.561Z,38.10
2017-08-27T18:55:30.290Z,38.50
2017-08-27T18:57:57.814Z,38.40
2017-08-27T19:00:25.342Z,38.70
2017-08-27T19:02:58.731Z,38.80
2017-08-27T19:05:26.304Z,38.80
2017-08-27T19:07:53.830Z,38.80
2017-08-27T19:10:21.383Z,38.80
2017-08-27T19:12:48.913Z,39.30
2017-08-27T19:15:16.466Z,39.30
2017-08-27T19:17:44.022Z,39.80
2017-08-27T19:20:11.560Z,39.90
2017-08-27T19:22:39.097Z,39.80
2017-08-27T19:25:06.618Z,40.00
2017-08-27T19:27:34.170Z,39.60
2017-08-27T19:30:01.751Z,39.90
2017-08-27T19:32:29.294Z,39.90
2017-08-27T19:34:56.824Z,40.30
2017-08-27T19:37:24.379Z,40.10
2017-08-27T19:39:51.969Z,40.20
2017-08-27T19:42:19.578Z,40.20
2017-08-27T19:44:47.216Z,40.30
2017-08-27T19:47:14.746Z,40.30
2017-08-27T19:49:42.274Z,40.50
2017-08-27T19:52:09.861Z,40.50
2017-08-27T19:54:37.442Z,40.60
2017-08-27T19:57:04.970Z,40.80
2017-08-27T19:59:32.523Z,40.90
2017-08-27T20:02:00.110Z,41.10
2017-08-27T20:04:28.138Z,41.00
2017-08-27T20:06:55.700Z,41.00
2017-08-27T20:09:23.278Z,41.00
2017-08-27T20:11:50.814Z,41.00
2017-08-27T20:14:18.338Z,41.20
2017-08-27T20:16:45.885Z,41.70
2017-08-27T20:19:13.455Z,41.30
2017-08-27T20:21:40.990Z,41.40
2017-08-27T20:24:08.519Z,41.50
2017-08-27T20:26:36.046Z,42.10
2017-08-27T20:29:03.610Z,41.50
2017-08-27T20:31:31.350Z,41.80
2017-08-27T20:33:58.890Z,42.20
2017-08-27T20:36:26.418Z,42.30
2017-08-27T20:38:53.963Z,42.20
2017-08-27T20:41:21.518Z,42.30
2017-08-27T20:43:49.058Z,42.40
2017-08-27T20:46:16.587Z,42.50
2017-08-27T20:48:44.115Z,42.50
2017-08-27T20:51:12.419Z,42.80
2017-08-27T20:53:39.981Z,42.70
2017-08-27T20:56:07.521Z,42.70
2017-08-27T20:58:35.042Z,43.40
2017-08-27T21:01:02.570Z,43.00
2017-08-27T21:03:30.100Z,42.70
2017-08-27T21:05:57.658Z,43.40
2017-08-27T21:08:25.190Z,43.50
2017-08-27T21:10:52.730Z,43.30
2017-08-27T21:13:20.302Z,43.80
2017-08-27T21:15:48.215Z,43.80
2017-08-27T21:18:15.931Z,44.10
2017-08-27T21:20:43.462Z,44.30
2017-08-27T21:23:10.992Z,45.40
2017-08-27T21:25:38.518Z,44.80
2017-08-27T21:28:06.054Z,44.70
2017-08-27T21:30:33.614Z,45.10
2017-08-27T21:33:01.149Z,45.10
2017-08-27T21:35:28.675Z,45.60
2017-08-27T21:37:56.203Z,45.70
2017-08-27T21:40:23.737Z,45.90
2017-08-27T21:42:51.286Z,46.20
2017-08-27T21:45:18.810Z,46.10
2017-08-27T21:47:46.339Z,46.30
2017-08-27T21:50:13.861Z,46.50
2017-08-27T21:52:41.394Z,46.80
2017-08-27T21:55:08.945Z,46.90
2017-08-27T21:57:36.470Z,47.00
2017-08-27T22:00:04.006Z,47.30
2017-08-27T22:02:31.553Z,47.40
2017-08-27T22:04:59.073Z,47.40
2017-08-27T22:07:26.642Z,47.50
2017-08-27T22:09:54.171Z,47.70
2017-08-27T22:12:21.709Z,47.90
2017-08-27T22:14:49.244Z,47.90
2017-08-27T22:17:16.766Z,48.50
2017-08-27T22:19:44.318Z,48.00
2017-08-27T22:22:11.884Z,48.10
2017-08-27T22:24:39.429Z,48.20
2017-08-27T22:27:07.026Z,48.00
2017-08-27T22:29:34.555Z,48.40
2017-08-27T22:32:02.103Z,48.60
2017-08-27T22:34:30.394Z,48.70
2017-08-27T22:36:57.918Z,48.70
2017-08-27T22:39:25.441Z,48.90
2017-08-27T22:41:52.966Z,49.50
2017-08-27T22:44:20.518Z,49.10
2017-08-27T22:46:48.100Z,49.60
2017-08-27T22:49:15.638Z,49.60
2017-08-27T22:51:43.166Z,49.60
2017-08-27T22:54:10.778Z,49.60
2017-08-27T22:56:38.442Z,50.00
2017-08-27T22:59:05.966Z,49.70
2017-08-27T23:01:33.510Z,49.60
2017-08-27T23:04:01.818Z,49.60
2017-08-27T23:06:29.344Z,49.60
2017-08-27T23:08:56.946Z,50.20
2017-08-27T23:11:24.480Z,50.60
2017-08-27T23:13:52.833Z,50.90
2017-08-27T23:16:20.353Z,50.80
2017-08-27T23:18:47.885Z,50.90
2017-08-27T23:21:15.441Z,51.00
2017-08-27T23:23:42.971Z,51.00
2017-08-27T23:26:10.491Z,51.00
2017-08-27T23:28:38.018Z,51.00
2017-08-27T23:31:05.545Z,51.00
2017-08-27T23:33:33.099Z,51.00
2017-08-27T23:36:00.625Z,50.90
2017-08-27T23:38:28.146Z,50.90
2017-08-27T23:40:55.686Z,50.70
2017-08-27T23:43:23.294Z,50.80
2017-08-27T23:45:50.850Z,51.00
2017-08-27T23:48:18.401Z,51.00
2017-08-27T23:50:45.930Z,51.10
2017-08-27T23:53:13.458Z,51.00
2017-08-27T23:55:40.995Z,51.10
2017-08-27T23:58:08.538Z,51.80
